Arden, Delaware
Current Conditions -  °F | °C
As of 1:51 PM on Friday 21 Nov 2014 (Local Time) from KILG Reporting Station
Clear Clear  
Wind Chill: 24°   Ceiling: Unl
Heat Index: 36°   Visibility: 10mi
Dew Point:   Wind: 24mph
Humidity: 31%   Direction: 310°NW
Pressure: 30.4"   Gusts: 30mph
Location:  39.81°N, 75.49°W
Report Text: KILG 211751Z 31021G26KT 10SM CLR 02/M13 A3040 RMK AO2 PK WND 32026/1724 SLP294 T00221133 10022 21028 51002
Loading
Personal Weather Stations






























Interactive Weather Map New forecast layout! Learn more

10-Day Weather Forecast

Advertisements
Track Severe Weather on mobile